Time;durP1;ratioP1;P1;durP2;ratioP2;P2;SDS_P1;SDS_P2;PMS_P1;PMS_P2;Temp;Humidity;BMP_temperature;BMP_pressure;BME280_temperature;BME280_humidity;BME280_pressure;Samples;Min_cycle;Max_cycle;Signal;HPM_P1;HPM_P2
2023/04/20 00:01:46;;;;;;;2.42;2.10;;;3.00;99.90;;;;;;5070189;28;20216;-66
2023/04/20 00:04:15;;;;;;;2.45;2.25;;;3.00;99.90;;;;;;5069822;28;20239;-66
2023/04/20 00:06:42;;;;;;;7.03;2.90;;;2.90;99.90;;;;;;5070518;28;20197;-66
2023/04/20 00:09:09;;;;;;;2.75;2.03;;;2.90;99.90;;;;;;5070118;28;20655;-66
2023/04/20 00:11:36;;;;;;;3.25;2.65;;;2.80;99.90;;;;;;5069490;28;20307;-67
2023/04/20 00:14:03;;;;;;;4.53;3.10;;;2.80;99.90;;;;;;5069555;28;20208;-66
2023/04/20 00:16:29;;;;;;;4.13;2.90;;;2.70;99.90;;;;;;5070384;28;20204;-66
2023/04/20 00:18:56;;;;;;;3.53;2.65;;;2.70;99.90;;;;;;5070283;28;20254;-66
2023/04/20 00:21:24;;;;;;;3.60;3.25;;;2.70;99.90;;;;;;5070295;28;20640;-66
2023/04/20 00:23:51;;;;;;;2.72;2.40;;;2.60;99.90;;;;;;5070405;28;20226;-66
2023/04/20 00:26:20;;;;;;;3.10;2.45;;;2.60;99.90;;;;;;5070621;28;20203;-66
2023/04/20 00:28:46;;;;;;;2.53;2.05;;;2.50;99.90;;;;;;5070483;28;20675;-65
2023/04/20 00:31:13;;;;;;;2.58;1.90;;;2.50;99.90;;;;;;5069806;28;20231;-66
2023/04/20 00:33:40;;;;;;;3.72;2.65;;;2.40;99.90;;;;;;5070497;28;20211;-65
2023/04/20 00:36:07;;;;;;;3.25;2.83;;;2.40;99.90;;;;;;5070162;28;20209;-66
2023/04/20 00:38:35;;;;;;;3.30;2.53;;;2.40;99.90;;;;;;5070563;28;20212;-66
2023/04/20 00:41:02;;;;;;;2.70;2.30;;;2.40;99.90;;;;;;5069679;28;20270;-67
2023/04/20 00:43:29;;;;;;;3.88;2.13;;;2.30;99.90;;;;;;5070474;28;20204;-65
2023/04/20 00:45:56;;;;;;;2.35;2.00;;;2.30;99.90;;;;;;5070159;28;20659;-67
2023/04/20 00:48:23;;;;;;;3.03;2.83;;;2.20;99.90;;;;;;5070145;28;20212;-66
2023/04/20 00:50:50;;;;;;;2.47;2.28;;;2.10;99.90;;;;;;5069864;28;20231;-66
2023/04/20 00:53:18;;;;;;;2.80;2.17;;;2.10;99.90;;;;;;5070191;28;20212;-66
2023/04/20 00:55:47;;;;;;;2.63;2.42;;;2.00;99.90;;;;;;5070319;28;20209;-65
2023/04/20 00:58:14;;;;;;;3.42;2.80;;;2.00;99.90;;;;;;5069982;28;20204;-66
2023/04/20 01:00:41;;;;;;;2.63;2.40;;;2.00;99.90;;;;;;5069812;28;20308;-65
2023/04/20 01:03:08;;;;;;;4.00;2.85;;;2.00;99.90;;;;;;5069560;28;20208;-66
2023/04/20 02:40:50;;;;;;;4.57;3.35;;;1.00;99.90;;;;;;5066188;22;20654;-69
2023/04/20 02:43:17;;;;;;;3.63;3.03;;;1.00;99.90;;;;;;5052515;28;20300;-69
2023/04/20 02:45:44;;;;;;;4.20;3.80;;;1.00;99.90;;;;;;5052396;28;20204;-69
2023/04/20 02:48:10;;;;;;;3.55;2.95;;;1.00;99.90;;;;;;5052278;28;20208;-69
2023/04/20 02:50:37;;;;;;;5.70;3.13;;;0.90;99.90;;;;;;5055668;28;20284;-69
2023/04/20 02:53:04;;;;;;;8.00;4.43;;;0.90;99.90;;;;;;5072269;28;20307;-69
2023/04/20 02:55:31;;;;;;;3.40;2.75;;;0.90;99.90;;;;;;5072161;28;20290;-69
2023/04/20 02:57:59;;;;;;;4.35;3.20;;;0.90;99.90;;;;;;5072575;28;20233;-69
2023/04/20 03:00:26;;;;;;;4.55;3.22;;;0.90;99.90;;;;;;5072059;28;20524;-69
2023/04/20 03:02:53;;;;;;;4.60;3.22;;;0.90;99.90;;;;;;5072350;28;20216;-69
2023/04/20 03:05:20;;;;;;;3.22;2.60;;;0.80;99.90;;;;;;5072935;28;20215;-69
2023/04/20 03:07:46;;;;;;;3.83;3.10;;;0.80;99.90;;;;;;5072057;28;20204;-69
2023/04/20 03:10:13;;;;;;;2.92;2.63;;;0.80;99.90;;;;;;5053733;28;20201;-70
2023/04/20 03:12:40;;;;;;;6.70;3.85;;;0.80;99.90;;;;;;5051848;28;20243;-70
2023/04/20 03:15:10;;;;;;;8.18;3.17;;;0.80;99.90;;;;;;5051973;28;20741;-69
2023/04/20 03:17:36;;;;;;;4.28;3.42;;;0.80;99.90;;;;;;5051865;28;20227;-69
2023/04/20 03:20:04;;;;;;;3.30;2.70;;;0.80;99.90;;;;;;5051707;28;20573;-69
2023/04/20 03:22:31;;;;;;;3.85;3.35;;;0.80;99.90;;;;;;5051666;28;20209;-69
2023/04/20 03:24:58;;;;;;;3.38;3.03;;;0.70;99.90;;;;;;5052169;28;20334;-69
2023/04/20 03:27:25;;;;;;;4.90;2.78;;;0.70;99.90;;;;;;5054436;28;20251;-70
2023/04/20 03:29:51;;;;;;;5.35;3.88;;;0.70;99.90;;;;;;5053415;28;20208;-69
2023/04/20 03:32:19;;;;;;;6.13;3.53;;;0.70;99.90;;;;;;5053194;28;20719;-69
2023/04/20 03:34:46;;;;;;;5.13;3.53;;;0.70;99.90;;;;;;5061431;28;20201;-69
2023/04/20 03:37:13;;;;;;;5.70;3.33;;;0.70;99.90;;;;;;5052979;28;20591;-70
2023/04/20 03:39:40;;;;;;;3.78;3.47;;;0.60;99.90;;;;;;5052996;28;20212;-69
2023/04/20 03:42:06;;;;;;;3.80;3.38;;;0.60;99.90;;;;;;5052050;28;20213;-69
2023/04/20 03:44:33;;;;;;;3.40;3.03;;;0.60;99.90;;;;;;5052390;28;20603;-69
2023/04/20 03:47:00;;;;;;;4.40;3.75;;;0.60;99.90;;;;;;5052018;28;20198;-70
2023/04/20 03:49:29;;;;;;;6.65;4.18;;;0.60;99.90;;;;;;5052162;28;20201;-69
2023/04/20 03:51:56;;;;;;;4.95;3.30;;;0.60;99.90;;;;;;5051209;28;20245;-70
2023/04/20 03:54:24;;;;;;;2.75;2.50;;;0.50;99.90;;;;;;5054674;28;20562;-70
2023/04/20 03:56:50;;;;;;;4.13;3.58;;;0.50;99.90;;;;;;5064377;28;20231;-69
2023/04/20 03:59:17;;;;;;;3.78;3.38;;;0.50;99.90;;;;;;5050911;28;20691;-69
2023/04/20 04:01:44;;;;;;;3.28;2.97;;;0.50;99.90;;;;;;5050556;28;20223;-69
2023/04/20 04:04:11;;;;;;;6.47;3.50;;;0.50;99.90;;;;;;5051203;28;20574;-70
2023/04/20 04:06:39;;;;;;;3.30;2.90;;;0.50;99.90;;;;;;5051282;28;20574;-70
2023/04/20 04:09:05;;;;;;;4.15;3.53;;;0.50;99.90;;;;;;5050543;28;20197;-69
2023/04/20 04:11:32;;;;;;;4.55;3.33;;;0.50;99.90;;;;;;5050766;28;20725;-69
2023/04/20 04:13:59;;;;;;;4.22;2.75;;;0.50;99.90;;;;;;5058786;28;20224;-69
2023/04/20 04:16:26;;;;;;;3.95;3.08;;;0.50;99.90;;;;;;5060530;28;20670;-70
2023/04/20 04:18:53;;;;;;;3.47;3.17;;;0.50;99.90;;;;;;5051377;28;20197;-69
2023/04/20 04:21:19;;;;;;;5.90;4.05;;;0.50;99.90;;;;;;5051057;28;20224;-69
2023/04/20 04:27:48;;;;;;;7.55;3.92;;;0.50;99.90;;;;;;5079748;28;20260;-93
2023/04/20 06:07:58;;;;;;;5.80;5.18;;;2.90;99.90;;;;;;5042673;22;20653;-68
2023/04/20 06:10:25;;;;;;;6.93;5.25;;;3.00;99.90;;;;;;5072620;28;20204;-68
2023/04/20 06:12:52;;;;;;;4.90;4.25;;;3.20;99.90;;;;;;5074242;28;20220;-69
2023/04/20 06:15:18;;;;;;;5.00;4.05;;;3.30;99.90;;;;;;5074354;28;20602;-69
2023/04/20 06:17:45;;;;;;;5.72;4.47;;;3.40;99.90;;;;;;5074283;28;20208;-69
2023/04/20 06:20:12;;;;;;;4.25;3.85;;;3.50;99.90;;;;;;5074251;28;20197;-69
2023/04/20 06:22:43;;;;;;;9.82;5.20;;;3.70;99.90;;;;;;5053995;28;20223;-68
2023/04/20 06:25:12;;;;;;;4.93;4.18;;;3.80;99.90;;;;;;5055030;28;20201;-69
2023/04/20 06:27:39;;;;;;;5.43;3.88;;;3.80;99.90;;;;;;5046492;28;20193;-68
2023/04/20 06:30:06;;;;;;;4.95;4.25;;;4.00;99.90;;;;;;5054553;28;20301;-69
2023/04/20 06:32:33;;;;;;;8.93;4.70;;;4.10;99.90;;;;;;5053223;28;20643;-68
2023/04/20 06:35:00;;;;;;;6.13;4.55;;;4.30;99.90;;;;;;5054742;28;20196;-69
2023/04/20 06:37:27;;;;;;;4.90;4.40;;;4.40;99.90;;;;;;5054173;28;20251;-68
2023/04/20 06:39:54;;;;;;;8.18;4.47;;;4.40;99.90;;;;;;5055044;28;20197;-69
2023/04/20 06:42:22;;;;;;;6.10;4.50;;;4.50;99.90;;;;;;5063210;28;20244;-69
2023/04/20 06:44:49;;;;;;;8.13;4.53;;;4.50;99.90;;;;;;5074748;28;20196;-69
2023/04/20 06:47:16;;;;;;;4.57;4.18;;;4.60;99.90;;;;;;5074044;28;20239;-73
2023/04/20 06:49:43;;;;;;;5.25;4.28;;;4.80;99.90;;;;;;5069784;28;20208;-68
2023/04/20 06:52:09;;;;;;;5.03;3.60;;;4.90;99.90;;;;;;5052940;28;20255;-67
2023/04/20 06:54:36;;;;;;;8.40;5.70;;;5.10;99.90;;;;;;5052736;28;20201;-68
2023/04/20 06:57:03;;;;;;;6.10;4.40;;;5.30;99.90;;;;;;5053091;28;20208;-68
2023/04/20 06:59:31;;;;;;;6.78;4.40;;;5.50;99.90;;;;;;5051901;28;20255;-69
2023/04/20 07:01:57;;;;;;;5.05;4.40;;;5.70;99.90;;;;;;5051954;28;20217;-70
2023/04/20 07:04:30;;;;;;;6.20;4.45;;;6.00;99.90;;;;;;5082798;22;21028;-94
2023/04/20 07:06:57;;;;;;;4.88;3.90;;;6.10;99.90;;;;;;5091784;28;20203;-91
2023/04/20 07:09:24;;;;;;;5.57;4.30;;;6.30;99.90;;;;;;5090559;28;20204;-92
2023/04/20 07:11:51;;;;;;;7.70;4.32;;;6.50;99.90;;;;;;5093258;28;20200;-91
2023/04/20 07:14:19;;;;;;;5.50;4.22;;;6.70;99.90;;;;;;5103995;28;20222;-91
2023/04/20 07:16:47;;;;;;;5.20;4.32;;;6.90;99.90;;;;;;5109311;28;20195;-92
2023/04/20 07:19:14;;;;;;;6.03;4.45;;;7.00;99.90;;;;;;5099251;28;20214;-92
2023/04/20 07:21:43;;;;;;;5.07;4.07;;;6.90;99.90;;;;;;5082216;28;20274;-92
2023/04/20 07:24:10;;;;;;;6.60;5.05;;;6.80;99.90;;;;;;5098366;28;20200;-92
2023/04/20 07:26:37;;;;;;;5.43;4.40;;;6.80;99.90;;;;;;5100753;28;20231;-92
2023/04/20 07:29:04;;;;;;;5.85;5.25;;;6.60;99.90;;;;;;5102533;28;20235;-91
2023/04/20 07:34:34;;;;;;;5.63;4.20;;;6.50;99.90;;;;;;5086551;28;20224;-90
2023/04/20 07:37:01;;;;;;;7.00;4.82;;;6.50;99.90;;;;;;5099862;28;20203;-92
2023/04/20 07:39:29;;;;;;;7.05;4.70;;;6.50;99.90;;;;;;5098794;28;20285;-92
2023/04/20 07:41:56;;;;;;;5.95;4.50;;;6.60;99.90;;;;;;5099635;28;20208;-92
2023/04/20 07:44:25;;;;;;;4.72;4.05;;;6.80;99.90;;;;;;5100884;28;20211;-92
2023/04/20 07:50:19;;;;;;;7.30;5.15;;;7.30;99.90;;;;;;5079274;28;20271;-90
2023/04/20 07:52:46;;;;;;;5.72;4.55;;;7.50;99.90;;;;;;5116091;28;20211;-92
2023/04/20 07:55:14;;;;;;;5.75;4.70;;;7.40;99.90;;;;;;5118163;28;20204;-91
2023/04/20 07:57:41;;;;;;;5.90;4.82;;;7.40;99.90;;;;;;5118229;28;20194;-92
2023/04/20 08:00:11;;;;;;;9.15;4.45;;;7.40;99.90;;;;;;5116052;28;20230;-93
2023/04/20 08:02:42;;;;;;;5.38;4.18;;;7.20;99.90;;;;;;5115007;28;20206;-90
2023/04/20 08:05:29;;;;;;;5.90;4.57;;;7.10;99.90;;;;;;5110471;28;20254;-92
2023/04/20 08:07:55;;;;;;;6.25;4.65;;;7.00;99.90;;;;;;5115218;28;20375;-91
2023/04/20 08:10:53;;;;;;;6.20;5.30;;;6.90;99.90;;;;;;5105416;28;20272;-93
2023/04/20 08:13:20;;;;;;;4.38;3.97;;;6.80;99.90;;;;;;5093466;28;20268;-93
2023/04/20 08:15:47;;;;;;;4.72;3.65;;;6.50;99.90;;;;;;5117375;28;20216;-92
2023/04/20 08:18:14;;;;;;;8.18;4.53;;;6.30;99.90;;;;;;5117810;28;20246;-93
2023/04/20 08:20:42;;;;;;;6.78;4.82;;;6.20;99.90;;;;;;5117397;28;20190;-93
2023/04/20 08:26:24;;;;;;;5.45;4.45;;;6.00;99.90;;;;;;5093361;22;20684;-64
2023/04/20 08:28:51;;;;;;;4.80;3.90;;;5.90;99.90;;;;;;5059261;28;20204;-65
2023/04/20 08:31:18;;;;;;;7.32;5.50;;;5.80;99.90;;;;;;5052731;28;20225;-65
2023/04/20 08:33:45;;;;;;;8.45;4.90;;;5.80;99.90;;;;;;5068868;28;20208;-64
2023/04/20 08:36:14;;;;;;;8.60;4.55;;;5.80;99.90;;;;;;5069315;28;20667;-65
2023/04/20 08:38:41;;;;;;;6.57;4.25;;;5.90;99.90;;;;;;5069319;28;20261;-64
2023/04/20 08:41:10;;;;;;;7.00;5.00;;;5.80;99.90;;;;;;5068454;28;20227;-64
2023/04/20 08:43:37;;;;;;;4.85;4.25;;;5.80;99.90;;;;;;5069492;28;20196;-65
2023/04/20 08:46:04;;;;;;;6.38;4.95;;;5.80;99.90;;;;;;5068900;28;20283;-64
2023/04/20 08:48:35;;;;;;;6.28;5.10;;;5.80;99.90;;;;;;5087116;28;20203;-64
2023/04/20 08:51:03;;;;;;;9.60;4.95;;;5.80;99.90;;;;;;5069164;28;20307;-63
2023/04/20 08:53:32;;;;;;;7.22;5.18;;;5.80;99.90;;;;;;5069141;28;20472;-65
2023/04/20 08:56:00;;;;;;;7.53;5.45;;;5.90;99.90;;;;;;5068570;28;20632;-64
2023/04/20 08:58:31;;;;;;;5.53;4.88;;;5.90;99.90;;;;;;5084283;28;20200;-64
2023/04/20 09:00:59;;;;;;;5.03;4.53;;;5.80;99.90;;;;;;5068731;28;20580;-65
2023/04/20 09:03:34;;;;;;;6.30;4.30;;;5.80;99.90;;;;;;5068568;28;20208;-64
2023/04/20 09:06:01;;;;;;;9.13;5.22;;;5.70;99.90;;;;;;5069105;28;20279;-64
2023/04/20 09:08:37;;;;;;;6.57;5.00;;;5.70;99.90;;;;;;5068580;28;20204;-64
2023/04/20 09:11:05;;;;;;;6.30;5.03;;;5.60;99.90;;;;;;5067700;28;20227;-64
2023/04/20 09:13:32;;;;;;;5.32;4.22;;;5.50;99.90;;;;;;5069276;28;20226;-65
2023/04/20 09:16:11;;;;;;;7.53;5.50;;;5.50;99.90;;;;;;5069602;28;20780;-65
2023/04/20 09:18:51;;;;;;;5.10;4.60;;;5.40;99.90;;;;;;5067878;28;20211;-67
2023/04/20 09:21:21;;;;;;;5.90;4.50;;;5.50;99.90;;;;;;5069844;28;20246;-66
2023/04/20 09:24:00;;;;;;;5.85;4.90;;;5.50;99.90;;;;;;5078232;28;20246;-67
2023/04/20 09:26:27;;;;;;;4.65;4.20;;;5.60;99.90;;;;;;5083136;28;20211;-66
2023/04/20 09:28:54;;;;;;;11.50;5.35;;;5.60;99.90;;;;;;5070024;28;20200;-65
2023/04/20 09:31:22;;;;;;;5.57;4.75;;;5.60;99.90;;;;;;5071153;28;20235;-66
2023/04/20 09:34:00;;;;;;;7.28;5.00;;;5.70;99.90;;;;;;5066226;28;20212;-65
2023/04/20 09:36:38;;;;;;;4.65;4.20;;;5.80;99.90;;;;;;5087336;28;20222;-66
2023/04/20 09:39:09;;;;;;;5.05;4.43;;;5.80;99.90;;;;;;5092823;28;20223;-65
2023/04/20 09:41:37;;;;;;;6.00;5.18;;;5.80;99.90;;;;;;5073161;28;20703;-66
2023/04/20 09:44:06;;;;;;;6.65;5.10;;;5.90;99.90;;;;;;5093558;28;20233;-64
2023/04/20 09:46:35;;;;;;;5.57;4.50;;;5.80;99.90;;;;;;5093394;28;20199;-66
2023/04/20 09:49:05;;;;;;;9.55;5.32;;;5.80;99.90;;;;;;5093408;28;20192;-64
2023/04/20 09:51:35;;;;;;;5.57;4.65;;;5.80;99.90;;;;;;5070167;28;20216;-65
2023/04/20 09:54:04;;;;;;;7.32;5.55;;;5.80;99.90;;;;;;5073136;28;20212;-66
2023/04/20 09:56:33;;;;;;;6.85;4.68;;;5.80;99.90;;;;;;5073106;28;20240;-66
2023/04/20 09:59:00;;;;;;;6.78;4.60;;;5.80;99.90;;;;;;5073315;28;20227;-65
2023/04/20 10:01:30;;;;;;;6.85;4.75;;;5.90;99.90;;;;;;5071815;28;20228;-65
2023/04/20 10:03:59;;;;;;;5.63;4.50;;;5.90;99.90;;;;;;5073366;28;20652;-65
2023/04/20 10:06:28;;;;;;;7.47;5.55;;;5.90;99.90;;;;;;5072266;28;20912;-65
2023/04/20 10:08:55;;;;;;;7.22;5.38;;;5.90;99.90;;;;;;5072875;28;20596;-65
2023/04/20 10:11:30;;;;;;;8.10;5.13;;;5.90;99.90;;;;;;5072190;28;20227;-64
2023/04/20 10:13:59;;;;;;;6.43;4.30;;;5.90;99.90;;;;;;5085333;28;20219;-65
2023/04/20 10:16:26;;;;;;;5.28;4.78;;;5.90;99.90;;;;;;5074370;28;20208;-65
2023/04/20 10:19:01;;;;;;;6.72;5.03;;;5.90;99.90;;;;;;5072883;28;20686;-65
2023/04/20 10:21:28;;;;;;;7.38;4.93;;;5.90;99.90;;;;;;5071919;28;20228;-66
2023/04/20 10:23:57;;;;;;;5.53;4.70;;;6.00;99.90;;;;;;5072681;28;20196;-65
2023/04/20 10:26:24;;;;;;;6.18;5.05;;;6.00;99.90;;;;;;5072353;28;20215;-65
2023/04/20 10:28:51;;;;;;;8.55;5.10;;;6.00;99.90;;;;;;5064637;28;20663;-64
2023/04/20 10:31:22;;;;;;;6.82;4.88;;;6.00;99.90;;;;;;5070281;28;20232;-66
2023/04/20 10:33:50;;;;;;;5.72;4.85;;;6.10;99.90;;;;;;5070896;28;20670;-65
2023/04/20 10:36:24;;;;;;;6.35;4.60;;;6.10;99.90;;;;;;5071687;28;20209;-66
2023/04/20 10:38:51;;;;;;;5.78;5.03;;;6.20;99.90;;;;;;5071259;28;20230;-66
2023/04/20 10:41:18;;;;;;;6.55;5.20;;;6.20;99.90;;;;;;5070135;28;20248;-65
2023/04/20 10:43:45;;;;;;;5.90;4.60;;;6.30;99.90;;;;;;5072220;28;20207;-65
2023/04/20 10:46:16;;;;;;;5.78;5.15;;;6.30;99.90;;;;;;5071570;28;20196;-65
2023/04/20 10:49:00;;;;;;;6.45;5.20;;;6.40;99.90;;;;;;5071964;28;20204;-66
2023/04/20 10:51:27;;;;;;;4.80;4.30;;;6.50;99.90;;;;;;5069313;28;20657;-65
2023/04/20 10:54:03;;;;;;;5.28;4.70;;;6.60;99.90;;;;;;5064421;28;20220;-66
2023/04/20 10:56:37;;;;;;;5.35;4.30;;;6.70;99.90;;;;;;5071671;28;20321;-66
2023/04/20 10:59:06;;;;;;;7.35;4.78;;;6.90;99.90;;;;;;5071721;28;20220;-66
2023/04/20 11:01:33;;;;;;;6.05;4.82;;;7.00;99.90;;;;;;5070898;28;20224;-66
2023/04/20 11:04:01;;;;;;;5.40;4.15;;;7.00;99.90;;;;;;5072047;28;20578;-65
2023/04/20 11:06:28;;;;;;;5.57;4.75;;;7.00;99.90;;;;;;5071607;28;20211;-64
2023/04/20 11:08:55;;;;;;;5.68;4.32;;;6.90;99.90;;;;;;5071595;28;20204;-65
2023/04/20 11:11:26;;;;;;;5.05;4.50;;;6.70;99.90;;;;;;5071037;28;20416;-65
2023/04/20 11:13:53;;;;;;;7.50;4.53;;;6.70;99.90;;;;;;5071772;28;20303;-64
2023/04/20 11:16:19;;;;;;;5.38;4.30;;;6.80;99.90;;;;;;5071173;28;20212;-64
2023/04/20 11:18:51;;;;;;;7.15;4.85;;;6.80;99.90;;;;;;5091669;28;20206;-65
2023/04/20 11:21:19;;;;;;;6.28;4.93;;;6.90;99.90;;;;;;5077703;28;20248;-65
2023/04/20 11:23:47;;;;;;;5.55;4.85;;;7.00;99.90;;;;;;5091290;28;20200;-65
2023/04/20 11:26:13;;;;;;;6.03;5.20;;;7.00;99.90;;;;;;5078440;28;20208;-64
2023/04/20 11:28:51;;;;;;;5.82;4.95;;;6.90;99.90;;;;;;5069012;28;20203;-64
2023/04/20 11:31:18;;;;;;;4.57;4.05;;;7.00;99.90;;;;;;5070354;28;20220;-65
2023/04/20 11:33:45;;;;;;;5.35;4.60;;;6.90;99.90;;;;;;5068979;28;20695;-65
2023/04/20 11:36:20;;;;;;;4.68;4.05;;;6.90;99.90;;;;;;5070723;28;20215;-65
2023/04/20 11:38:47;;;;;;;6.05;4.65;;;7.00;99.90;;;;;;5072028;28;20304;-65
2023/04/20 11:41:13;;;;;;;5.00;4.50;;;6.90;99.90;;;;;;5090218;28;20583;-65
2023/04/20 11:43:42;;;;;;;5.45;4.15;;;6.90;99.90;;;;;;5091788;28;20227;-65
2023/04/20 11:46:14;;;;;;;6.38;4.65;;;7.00;99.90;;;;;;5090847;28;20196;-65
2023/04/20 11:48:41;;;;;;;5.72;4.65;;;7.00;99.90;;;;;;5090843;28;20204;-65
2023/04/20 11:51:07;;;;;;;7.07;5.15;;;7.00;99.90;;;;;;5076068;28;20247;-64
2023/04/20 11:53:36;;;;;;;5.20;4.50;;;7.00;99.90;;;;;;5070054;28;20211;-64
2023/04/20 11:56:03;;;;;;;6.22;4.78;;;6.90;99.90;;;;;;5070639;28;20253;-65
2023/04/20 11:58:30;;;;;;;6.60;5.43;;;6.90;99.90;;;;;;5070533;28;20299;-66
2023/04/20 12:00:58;;;;;;;5.00;4.30;;;6.80;99.90;;;;;;5073774;28;20219;-65
2023/04/20 12:03:25;;;;;;;5.90;5.05;;;6.80;99.90;;;;;;5090846;28;20226;-66
2023/04/20 12:05:52;;;;;;;6.35;4.75;;;6.70;99.90;;;;;;5089858;28;20799;-66
2023/04/20 12:08:19;;;;;;;6.78;5.13;;;6.70;99.90;;;;;;5089771;28;20207;-65
2023/04/20 12:10:47;;;;;;;5.22;4.15;;;6.70;99.90;;;;;;5089950;28;20200;-65
2023/04/20 12:13:13;;;;;;;5.68;4.40;;;6.70;99.90;;;;;;5084702;28;20211;-65
2023/04/20 12:15:40;;;;;;;5.72;4.60;;;6.70;99.90;;;;;;5069995;28;20645;-65
2023/04/20 12:18:07;;;;;;;5.50;4.90;;;6.70;99.90;;;;;;5069620;28;20207;-66
2023/04/20 12:20:34;;;;;;;5.22;4.72;;;6.70;99.90;;;;;;5069535;28;20201;-65
2023/04/20 12:23:01;;;;;;;8.80;4.55;;;6.70;99.90;;;;;;5070036;28;20200;-65
2023/04/20 12:25:28;;;;;;;9.32;4.85;;;6.70;99.90;;;;;;5069555;28;20238;-65
2023/04/20 12:27:56;;;;;;;6.30;4.85;;;6.70;99.90;;;;;;5070075;28;20196;-65
2023/04/20 12:30:23;;;;;;;6.95;4.40;;;6.80;99.90;;;;;;5068593;28;20203;-66
2023/04/20 12:32:49;;;;;;;6.97;4.93;;;6.90;99.90;;;;;;5069860;28;20621;-65
2023/04/20 12:35:16;;;;;;;8.80;5.60;;;7.00;99.90;;;;;;5069246;28;20220;-65
2023/04/20 12:37:43;;;;;;;7.95;5.47;;;7.10;99.90;;;;;;5069602;28;20205;-66
2023/04/20 12:40:10;;;;;;;6.80;5.57;;;7.10;99.90;;;;;;5070282;28;20197;-64
2023/04/20 12:42:37;;;;;;;8.32;6.25;;;7.10;99.90;;;;;;5068891;28;20282;-66
2023/04/20 12:45:06;;;;;;;7.95;5.88;;;7.10;99.90;;;;;;5069975;28;20192;-66
2023/04/20 12:47:33;;;;;;;8.40;5.97;;;7.10;99.90;;;;;;5069374;28;20207;-66
2023/04/20 12:50:00;;;;;;;8.23;5.45;;;7.10;99.90;;;;;;5070163;28;20196;-66
2023/04/20 12:52:27;;;;;;;7.07;5.38;;;7.10;99.90;;;;;;5068816;28;20228;-66
2023/04/20 12:54:54;;;;;;;6.55;5.15;;;7.10;99.90;;;;;;5069571;28;20220;-66
2023/04/20 12:57:21;;;;;;;6.53;4.88;;;7.20;99.90;;;;;;5069526;28;20196;-66
2023/04/20 12:59:48;;;;;;;7.75;5.55;;;7.20;99.90;;;;;;5069623;28;20211;-65
2023/04/20 13:02:16;;;;;;;7.63;5.10;;;7.40;99.90;;;;;;5088911;28;20222;-66
2023/04/20 13:04:44;;;;;;;7.47;5.22;;;7.50;99.90;;;;;;5089377;28;20196;-67
2023/04/20 13:07:11;;;;;;;5.50;4.90;;;7.50;99.90;;;;;;5089005;28;20192;-66
2023/04/20 13:09:38;;;;;;;6.88;4.97;;;7.40;99.90;;;;;;5090054;28;20636;-76
2023/04/20 13:12:05;;;;;;;5.75;4.90;;;7.40;99.90;;;;;;5089421;28;20218;-66
2023/04/20 13:14:32;;;;;;;5.50;5.00;;;7.20;99.90;;;;;;5089612;28;20298;-64
2023/04/20 13:17:00;;;;;;;7.20;4.72;;;7.20;99.90;;;;;;5089469;28;20239;-66
2023/04/20 13:19:28;;;;;;;4.55;4.00;;;7.00;99.90;;;;;;5089287;28;20206;-66
2023/04/20 13:21:55;;;;;;;6.22;4.25;;;7.00;99.90;;;;;;5088993;28;20216;-66
2023/04/20 13:24:22;;;;;;;4.72;4.22;;;7.00;99.90;;;;;;5089774;28;20203;-67
2023/04/20 13:26:51;;;;;;;6.13;4.45;;;7.10;99.90;;;;;;5089301;28;20607;-66
2023/04/20 13:29:18;;;;;;;6.50;4.63;;;7.10;99.90;;;;;;5089301;28;20215;-76
2023/04/20 13:31:46;;;;;;;5.50;3.83;;;7.10;99.90;;;;;;5088773;28;20227;-74
2023/04/20 13:34:13;;;;;;;6.15;4.35;;;7.10;99.90;;;;;;5089654;28;20610;-70
2023/04/20 13:36:41;;;;;;;5.68;4.40;;;7.00;99.90;;;;;;5089254;28;20199;-69
2023/04/20 13:39:09;;;;;;;4.60;4.05;;;7.10;99.90;;;;;;5089584;28;20568;-67
2023/04/20 13:41:35;;;;;;;5.75;4.72;;;7.10;99.90;;;;;;5089045;28;20312;-70
2023/04/20 13:44:02;;;;;;;4.90;3.85;;;7.10;99.90;;;;;;5089164;28;20215;-69
2023/04/20 13:46:29;;;;;;;5.57;4.10;;;7.20;99.90;;;;;;5089115;28;20191;-70
2023/04/20 13:48:56;;;;;;;6.15;4.70;;;7.10;99.90;;;;;;5088985;28;20203;-70
2023/04/20 13:51:23;;;;;;;5.03;3.70;;;7.10;99.90;;;;;;5110529;22;20212;-95
2023/04/20 13:53:51;;;;;;;6.18;4.20;;;7.00;99.90;;;;;;5081193;28;20195;-92
2023/04/20 13:56:18;;;;;;;4.65;3.65;;;6.90;99.90;;;;;;5077923;28;20286;-94
2023/04/20 13:58:44;;;;;;;5.30;4.35;;;6.90;99.90;;;;;;5089424;28;20192;-93
2023/04/20 14:01:13;;;;;;;4.40;4.00;;;6.90;99.90;;;;;;5087822;28;20225;-93
2023/04/20 14:03:42;;;;;;;5.13;4.07;;;6.90;99.90;;;;;;5104023;28;20200;-91
2023/04/20 14:06:09;;;;;;;4.50;4.00;;;6.80;99.90;;;;;;5124233;22;20228;-68
2023/04/20 14:08:36;;;;;;;5.68;4.63;;;6.80;99.90;;;;;;5081207;28;20199;-70
2023/04/20 14:11:04;;;;;;;5.35;4.30;;;6.70;99.90;;;;;;5080976;28;20698;-70
2023/04/20 14:13:31;;;;;;;5.82;4.72;;;6.70;99.90;;;;;;5089571;28;20605;-70
2023/04/20 14:15:58;;;;;;;6.22;4.25;;;6.70;99.90;;;;;;5092455;28;20307;-70
2023/04/20 14:18:24;;;;;;;4.82;4.03;;;6.70;99.90;;;;;;5093474;28;20211;-70
2023/04/20 14:20:51;;;;;;;5.88;4.10;;;6.70;99.90;;;;;;5092957;28;20736;-70
2023/04/20 14:23:18;;;;;;;4.43;3.60;;;6.70;99.90;;;;;;5093559;28;20208;-70
2023/04/20 14:25:45;;;;;;;6.95;5.00;;;6.70;99.90;;;;;;5093490;28;20579;-70
2023/04/20 14:28:16;;;;;;;4.70;4.30;;;6.70;99.90;;;;;;5093303;28;20198;-70
2023/04/20 14:30:44;;;;;;;5.00;4.53;;;6.70;99.90;;;;;;5092679;28;20477;-70
2023/04/20 14:33:11;;;;;;;7.35;4.50;;;6.60;99.90;;;;;;5094124;28;20230;-70
2023/04/20 14:35:38;;;;;;;5.80;4.38;;;6.60;99.90;;;;;;5094074;28;20765;-70
2023/04/20 14:38:05;;;;;;;6.63;5.05;;;6.60;99.90;;;;;;5093665;28;20207;-70
2023/04/20 14:40:32;;;;;;;5.95;4.43;;;6.50;99.90;;;;;;5093413;28;20228;-70
2023/04/20 14:42:58;;;;;;;5.80;4.35;;;6.50;99.90;;;;;;5093543;28;20208;-70
2023/04/20 14:45:27;;;;;;;5.35;4.72;;;6.50;99.90;;;;;;5093308;28;20211;-70
2023/04/20 14:47:53;;;;;;;5.05;4.13;;;6.60;99.90;;;;;;5092905;28;20199;-70
2023/04/20 14:50:21;;;;;;;5.85;5.25;;;6.60;99.90;;;;;;5092921;28;20200;-70
2023/04/20 14:52:48;;;;;;;6.40;5.10;;;6.60;99.90;;;;;;5092567;28;20594;-70
2023/04/20 14:55:15;;;;;;;5.95;5.43;;;6.60;99.90;;;;;;5092960;28;20220;-70
2023/04/20 14:57:42;;;;;;;4.50;4.00;;;6.60;99.90;;;;;;5092389;28;20204;-70
2023/04/20 15:00:22;;;;;;;8.02;5.43;;;6.60;99.90;;;;;;5117622;22;20222;-93
2023/04/20 15:02:54;;;;;;;5.88;4.78;;;6.50;99.90;;;;;;5104164;28;20593;-93
2023/04/20 15:05:22;;;;;;;6.05;5.22;;;6.60;99.90;;;;;;5106044;28;20206;-92
2023/04/20 15:07:50;;;;;;;5.80;4.40;;;6.60;99.90;;;;;;5111216;28;20214;-92
2023/04/20 15:10:18;;;;;;;5.30;4.80;;;6.60;99.90;;;;;;5100729;28;20215;-91
2023/04/20 15:12:45;;;;;;;6.97;5.32;;;6.50;99.90;;;;;;5108350;28;20718;-92
2023/04/20 15:15:12;;;;;;;5.95;5.35;;;6.50;99.90;;;;;;5104692;28;20227;-92
2023/04/20 15:17:39;;;;;;;6.25;4.55;;;6.50;99.90;;;;;;5113736;28;20230;-93
2023/04/20 15:20:11;;;;;;;6.75;4.70;;;6.40;99.90;;;;;;5108855;28;20301;-92
2023/04/20 15:22:39;;;;;;;5.15;4.60;;;6.50;99.90;;;;;;5109612;28;20295;-92
2023/04/20 15:25:07;;;;;;;7.70;6.43;;;6.40;99.90;;;;;;5105300;28;20235;-91
2023/04/20 15:27:36;;;;;;;7.03;6.03;;;6.40;99.90;;;;;;5096950;28;20207;-92
2023/04/20 15:30:03;;;;;;;5.72;5.07;;;6.40;99.90;;;;;;5114174;28;20653;-91
2023/04/20 15:32:33;;;;;;;6.30;5.38;;;6.40;99.90;;;;;;5107564;28;20231;-92
2023/04/20 15:35:00;;;;;;;7.40;5.55;;;6.40;99.90;;;;;;5107469;28;20195;-91
2023/04/20 15:37:30;;;;;;;5.32;4.45;;;6.40;99.90;;;;;;5100493;28;20260;-91
2023/04/20 15:39:58;;;;;;;5.95;5.32;;;6.40;99.90;;;;;;5101443;28;20238;-92
2023/04/20 15:42:26;;;;;;;6.05;5.40;;;6.40;99.90;;;;;;5100041;28;20210;-91
2023/04/20 15:44:53;;;;;;;6.32;5.15;;;6.40;99.90;;;;;;5100630;28;20207;-91
2023/04/20 15:47:20;;;;;;;6.20;5.15;;;6.40;99.90;;;;;;5097274;28;20199;-91
2023/04/20 15:49:47;;;;;;;6.93;5.70;;;6.30;99.90;;;;;;5096765;28;20207;-93
2023/04/20 15:52:14;;;;;;;7.53;5.35;;;6.30;99.90;;;;;;5097066;28;20260;-91
2023/04/20 15:54:42;;;;;;;7.22;6.53;;;6.30;99.90;;;;;;5096534;28;20208;-91
2023/04/20 15:57:09;;;;;;;7.38;5.70;;;6.30;99.90;;;;;;5096386;28;20223;-91
2023/04/20 15:59:38;;;;;;;6.80;5.97;;;6.30;99.90;;;;;;5097055;28;20595;-90
2023/04/20 16:02:05;;;;;;;6.70;5.57;;;6.30;99.90;;;;;;5098548;28;20633;-90
2023/04/20 16:04:32;;;;;;;8.90;6.00;;;6.30;99.90;;;;;;5098903;28;20204;-93
2023/04/20 16:06:59;;;;;;;5.65;5.10;;;6.20;99.90;;;;;;5098587;28;20200;-93
2023/04/20 16:09:26;;;;;;;6.70;5.75;;;6.20;99.90;;;;;;5098383;28;20208;-91
2023/04/20 16:11:55;;;;;;;6.32;5.53;;;6.20;99.90;;;;;;5099028;28;20261;-92
2023/04/20 16:14:23;;;;;;;8.10;6.00;;;6.30;99.90;;;;;;5103796;28;20200;-90
2023/04/20 16:16:50;;;;;;;6.93;5.82;;;6.20;99.90;;;;;;5118406;28;20211;-90
2023/04/20 16:19:17;;;;;;;8.50;5.90;;;6.20;99.90;;;;;;5098911;28;20199;-90
2023/04/20 16:21:44;;;;;;;6.38;5.25;;;6.20;99.90;;;;;;5101669;28;20228;-92
2023/04/20 16:24:12;;;;;;;5.97;5.15;;;6.20;99.90;;;;;;5100524;28;20208;-91
2023/04/20 16:26:38;;;;;;;6.68;5.72;;;6.20;99.90;;;;;;5101031;28;20222;-91
2023/04/20 16:29:07;;;;;;;6.72;5.18;;;6.20;99.90;;;;;;5099618;28;20223;-91